createdAt,value
2018-07-04T00:02:19.890Z,98200.38
2018-07-04T00:05:06.014Z,98197.48
2018-07-04T00:07:52.271Z,98193.78
2018-07-04T00:10:38.534Z,98188.96
2018-07-04T00:13:24.751Z,98192.55
2018-07-04T00:16:10.992Z,98184.73
2018-07-04T00:18:57.211Z,98185.98
2018-07-04T00:21:43.463Z,98191.99
2018-07-04T00:24:29.734Z,98194.81
2018-07-04T00:27:15.902Z,98191.91
2018-07-04T00:30:02.168Z,98191.06
2018-07-04T00:32:48.279Z,98191.53
2018-07-04T00:35:34.397Z,98192.75
2018-07-04T00:38:20.525Z,98193.31
2018-07-04T00:41:06.635Z,98193.19
2018-07-04T00:43:52.797Z,98193.13
2018-07-04T00:46:38.852Z,98198.19
2018-07-04T00:49:24.997Z,98195.22
2018-07-04T00:52:11.099Z,98199.06
2018-07-04T00:54:57.282Z,98197.33
2018-07-04T00:57:43.309Z,98196.66
2018-07-04T01:00:29.488Z,98193.66
2018-07-04T01:03:15.570Z,98195.72
2018-07-04T01:06:01.855Z,98203.30
2018-07-04T01:08:48.064Z,98195.83
2018-07-04T01:11:34.079Z,98193.06
2018-07-04T01:14:20.217Z,98195.72
2018-07-04T01:17:06.354Z,98199.25
2018-07-04T01:19:52.751Z,98191.75
2018-07-04T01:22:38.968Z,98191.20
2018-07-04T01:25:25.228Z,98191.91
2018-07-04T01:28:11.506Z,98187.95
2018-07-04T01:30:57.559Z,98183.98
2018-07-04T01:33:43.589Z,98180.39
2018-07-04T01:36:29.639Z,98177.89
2018-07-04T01:39:15.680Z,98173.00
2018-07-04T01:42:01.839Z,98169.75
2018-07-04T01:44:47.935Z,98171.13
2018-07-04T01:47:34.046Z,98171.39
2018-07-04T01:50:20.071Z,98174.08
2018-07-04T01:53:06.150Z,98168.69
2018-07-04T01:55:52.184Z,98168.33
2018-07-04T01:58:38.343Z,98167.88
2018-07-04T02:01:24.406Z,98171.13
2018-07-04T02:04:10.624Z,98171.98
2018-07-04T02:06:56.785Z,98170.73
2018-07-04T02:09:42.912Z,98170.23
2018-07-04T02:12:29.011Z,98173.68
2018-07-04T02:15:15.317Z,98178.30
2018-07-04T02:18:01.328Z,98172.94
2018-07-04T02:20:47.395Z,98173.14
2018-07-04T02:23:33.553Z,98171.02
2018-07-04T02:26:19.705Z,98168.38
2018-07-04T02:29:05.846Z,98167.71
2018-07-04T02:31:52.008Z,98171.67
2018-07-04T02:34:38.191Z,98174.64
2018-07-04T02:37:24.326Z,98170.17
2018-07-04T02:40:10.531Z,98171.91
2018-07-04T02:42:56.771Z,98163.92
2018-07-04T02:45:42.943Z,98166.41
2018-07-04T02:48:29.076Z,98165.45
2018-07-04T02:51:15.144Z,98154.41
2018-07-04T02:54:01.215Z,98156.91
2018-07-04T02:56:47.325Z,98155.79
2018-07-04T02:59:33.465Z,98153.05
2018-07-04T03:02:19.659Z,98156.14
2018-07-04T03:05:05.782Z,98155.73
2018-07-04T03:07:52.003Z,98148.30
2018-07-04T03:10:38.222Z,98156.81
2018-07-04T03:13:24.240Z,98153.48
2018-07-04T03:16:10.362Z,98153.58
2018-07-04T03:18:56.381Z,98154.59
2018-07-04T03:21:42.453Z,98153.84
2018-07-04T03:24:28.630Z,98155.25
2018-07-04T03:27:14.810Z,98154.74
2018-07-04T03:30:00.942Z,98153.63
2018-07-04T03:32:47.000Z,98154.66
2018-07-04T03:35:33.259Z,98154.89
2018-07-04T03:38:19.501Z,98149.52
2018-07-04T03:41:05.499Z,98153.58
2018-07-04T03:43:51.865Z,98151.66
2018-07-04T03:46:37.997Z,98150.94
2018-07-04T03:49:24.038Z,98152.02
2018-07-04T03:52:10.051Z,98156.28
2018-07-04T03:54:56.193Z,98156.58
2018-07-04T03:57:42.375Z,98158.16
2018-07-04T04:00:28.500Z,98164.86
2018-07-04T04:03:14.614Z,98156.94
2018-07-04T04:06:00.945Z,98159.78
2018-07-04T04:08:47.236Z,98155.52
2018-07-04T04:11:33.316Z,98153.18
2018-07-04T04:14:19.429Z,98156.13
2018-07-04T04:17:05.568Z,98156.99
2018-07-04T04:19:51.727Z,98152.58
2018-07-04T04:22:37.809Z,98154.20
2018-07-04T04:25:23.942Z,98158.73
2018-07-04T04:28:11.459Z,98158.00
2018-07-04T04:30:51.615Z,98158.94
2018-07-04T04:33:37.813Z,98155.78
2018-07-04T04:36:24.022Z,98158.13
2018-07-04T04:39:10.028Z,98162.95
2018-07-04T04:41:56.456Z,98164.12
2018-07-04T04:44:42.591Z,98165.09
2018-07-04T04:47:28.883Z,98163.50
2018-07-04T04:50:15.190Z,98167.86
2018-07-04T04:52:55.685Z,98164.41
2018-07-04T04:55:41.961Z,98165.94
2018-07-04T04:58:28.250Z,98162.19
2018-07-04T05:01:08.530Z,98161.73
2018-07-04T05:03:54.659Z,98165.48
2018-07-04T05:06:40.868Z,98161.93
2018-07-04T05:09:27.066Z,98159.24
2018-07-04T05:12:13.440Z,98153.34
2018-07-04T05:14:59.732Z,98161.42
2018-07-04T05:17:45.943Z,98158.17
2018-07-04T05:20:32.234Z,98157.92
2018-07-04T05:23:18.464Z,98157.21
2018-07-04T05:26:04.670Z,98158.27
2018-07-04T05:28:51.040Z,98155.33
2018-07-04T05:31:37.272Z,98156.95
2018-07-04T05:34:23.640Z,98151.86
2018-07-04T05:37:09.816Z,98158.36
2018-07-04T05:39:50.152Z,98159.94
2018-07-04T05:42:36.477Z,98158.27
2018-07-04T05:45:22.643Z,98151.89
2018-07-04T05:48:08.940Z,98149.25
2018-07-04T05:50:55.213Z,98153.61
2018-07-04T05:53:41.349Z,98150.47
2018-07-04T05:56:27.475Z,98147.45
2018-07-04T05:59:13.747Z,98146.44
2018-07-04T06:01:59.998Z,98139.45
2018-07-04T06:04:46.251Z,98142.55
2018-07-04T06:07:26.584Z,98143.23
2018-07-04T06:10:12.757Z,98139.13
2018-07-04T06:12:58.881Z,98147.06
2018-07-04T06:15:40.005Z,98141.97
2018-07-04T06:18:26.145Z,98146.90
2018-07-04T06:21:12.390Z,98141.28
2018-07-04T06:23:52.673Z,98146.73
2018-07-04T06:26:38.901Z,98141.61
2018-07-04T06:29:25.323Z,98138.00
2018-07-04T06:32:11.524Z,98138.95
2018-07-04T06:34:57.804Z,98148.08
2018-07-04T06:37:40.943Z,98141.30
2018-07-04T06:40:09.050Z,98140.81
2018-07-04T06:42:37.697Z,98135.61
2018-07-04T06:45:05.501Z,98133.61
2018-07-04T06:47:33.502Z,98138.52
2018-07-04T06:50:01.271Z,98137.62
2018-07-04T06:52:29.509Z,98139.56
2018-07-04T06:54:57.258Z,98133.80
2018-07-04T06:57:25.057Z,98139.74
2018-07-04T06:59:52.790Z,98144.67
2018-07-04T07:02:21.280Z,98138.63
2018-07-04T07:05:07.626Z,98135.22
2018-07-04T07:07:53.898Z,98139.58
2018-07-04T07:10:40.138Z,98141.27
2018-07-04T07:13:26.340Z,98137.72
2018-07-04T07:16:12.641Z,98140.50
2018-07-04T07:18:58.823Z,98140.63
2018-07-04T07:21:44.923Z,98141.59
2018-07-04T07:24:31.167Z,98144.06
2018-07-04T07:27:17.274Z,98136.19
2018-07-04T07:30:03.501Z,98140.27
2018-07-04T07:32:49.680Z,98140.87
2018-07-04T07:35:35.739Z,98140.41
2018-07-04T07:38:21.947Z,98135.67
2018-07-04T07:41:08.111Z,98133.11
2018-07-04T07:43:54.399Z,98131.08
2018-07-04T07:46:40.570Z,98131.92
2018-07-04T07:49:20.807Z,98133.13
2018-07-04T07:52:07.065Z,98132.70
2018-07-04T07:54:53.241Z,98132.25
2018-07-04T07:57:39.385Z,98134.70
2018-07-04T08:00:19.881Z,98137.19
2018-07-04T08:03:00.269Z,98137.20
2018-07-04T08:05:46.888Z,98142.32
2018-07-04T08:08:33.307Z,98134.95
2018-07-04T08:11:19.468Z,98134.97
2018-07-04T08:14:05.612Z,98133.70
2018-07-04T08:16:51.779Z,98134.59
2018-07-04T08:19:37.839Z,98130.08
2018-07-04T08:22:24.026Z,98130.66
2018-07-04T08:25:10.148Z,98130.73
2018-07-04T08:27:50.374Z,98130.50
2018-07-04T08:30:36.756Z,98133.73
2018-07-04T08:33:23.011Z,98132.99
2018-07-04T08:36:09.362Z,98132.22
2018-07-04T08:38:55.781Z,98129.36
2018-07-04T08:41:42.030Z,98135.24
2018-07-04T08:44:28.193Z,98131.78
2018-07-04T08:47:14.355Z,98126.21
2018-07-04T08:50:00.731Z,98126.48
2018-07-04T08:52:46.988Z,98123.82
2018-07-04T08:55:33.209Z,98119.30
2018-07-04T08:58:19.634Z,98117.73
2018-07-04T09:01:06.044Z,98121.98
2018-07-04T09:03:52.248Z,98124.11
2018-07-04T09:06:38.358Z,98113.95
2018-07-04T09:09:24.559Z,98121.14
2018-07-04T09:12:10.842Z,98120.61
2018-07-04T09:14:57.002Z,98122.98
2018-07-04T09:17:43.158Z,98125.92
2018-07-04T09:20:29.323Z,98125.91
2018-07-04T09:23:15.444Z,98135.52
2018-07-04T09:26:01.538Z,98129.38
2018-07-04T09:28:47.694Z,98131.76
2018-07-04T09:31:33.817Z,98121.28
2018-07-04T09:34:20.065Z,98127.12
2018-07-04T09:37:06.341Z,98122.83
2018-07-04T09:39:52.493Z,98129.48
2018-07-04T09:42:38.619Z,98124.08
2018-07-04T09:45:24.864Z,98114.44
2018-07-04T09:48:10.953Z,98117.60
2018-07-04T09:50:57.262Z,98115.96
2018-07-04T09:53:43.553Z,98111.39
2018-07-04T09:56:23.801Z,98103.83
2018-07-04T09:59:10.083Z,98098.40
2018-07-04T10:01:56.182Z,98088.44
2018-07-04T10:04:42.301Z,98076.01
2018-07-04T10:07:28.562Z,98076.39
2018-07-04T10:10:14.758Z,98085.69
2018-07-04T10:13:01.010Z,98080.53
2018-07-04T10:15:47.192Z,98078.05
2018-07-04T10:18:33.491Z,98084.41
2018-07-04T10:21:19.804Z,98073.62
2018-07-04T10:24:06.099Z,98082.19
2018-07-04T10:26:52.418Z,98108.69
2018-07-04T10:29:38.593Z,98112.41
2018-07-04T10:32:24.753Z,98110.77
2018-07-04T10:35:10.934Z,98111.22
2018-07-04T10:37:57.220Z,98121.86
2018-07-04T10:40:43.379Z,98115.48
2018-07-04T10:43:29.565Z,98115.59
2018-07-04T10:46:16.250Z,98116.84
2018-07-04T10:49:02.298Z,98124.13
2018-07-04T10:51:42.503Z,98137.45
2018-07-04T10:54:29.307Z,98148.63
2018-07-04T10:57:15.666Z,98154.16
2018-07-04T10:59:56.002Z,98141.11
2018-07-04T11:02:42.261Z,98146.88
2018-07-04T11:05:28.760Z,98140.43
2018-07-04T11:08:15.102Z,98144.71
2018-07-04T11:11:01.311Z,98142.01
2018-07-04T11:13:47.496Z,98132.08
2018-07-04T11:16:34.811Z,98130.66
2018-07-04T11:19:20.929Z,98122.95
2018-07-04T11:22:07.029Z,98124.88
2018-07-04T11:24:53.402Z,98133.45
2018-07-04T11:27:39.530Z,98122.83
2018-07-04T11:30:25.656Z,98118.08
2018-07-04T11:33:11.919Z,98117.89
2018-07-04T11:35:58.222Z,98110.69
2018-07-04T11:38:44.379Z,98089.38
2018-07-04T11:41:30.739Z,98081.37
2018-07-04T11:44:16.903Z,98079.53
2018-07-04T11:46:44.664Z,98074.17
2018-07-04T11:49:12.437Z,98085.92
2018-07-04T11:51:40.190Z,98095.81
2018-07-04T11:54:07.936Z,98096.62
2018-07-04T11:56:35.720Z,98096.90
2018-07-04T11:59:03.466Z,98094.73
2018-07-04T12:01:31.217Z,98099.24
2018-07-04T12:04:17.427Z,98095.77
2018-07-04T12:07:07.110Z,98104.02
2018-07-04T12:09:35.947Z,98114.14
2018-07-04T12:12:03.787Z,98124.81
2018-07-04T12:14:31.867Z,98129.36
2018-07-04T12:17:00.162Z,98126.16
2018-07-04T12:19:28.151Z,98123.78
2018-07-04T12:21:55.921Z,98119.72
2018-07-04T12:24:23.924Z,98114.09
2018-07-04T12:26:51.717Z,98117.55
2018-07-04T12:29:19.438Z,98123.16
2018-07-04T12:31:47.210Z,98115.39
2018-07-04T12:34:14.971Z,98117.45
2018-07-04T12:36:42.718Z,98115.83
2018-07-04T12:39:10.483Z,98119.28
2018-07-04T12:41:38.226Z,98105.09
2018-07-04T12:44:05.993Z,98099.92
2018-07-04T12:46:33.743Z,98092.75
2018-07-04T12:49:02.494Z,98095.13
2018-07-04T12:51:31.877Z,98092.64
2018-07-04T12:54:05.197Z,98089.30
2018-07-04T12:56:51.556Z,98083.33
2018-07-04T12:59:37.859Z,98075.74
2018-07-04T13:02:25.196Z,98080.41
2018-07-04T13:05:11.445Z,98072.09
2018-07-04T13:07:57.520Z,98072.80
2018-07-04T13:10:43.828Z,98073.27
2018-07-04T13:13:30.060Z,98077.44
2018-07-04T13:16:16.252Z,98062.32
2018-07-04T13:19:02.562Z,98057.30
2018-07-04T13:21:48.733Z,98050.18
2018-07-04T13:24:34.866Z,98051.91
2018-07-04T13:27:21.109Z,98038.41
2018-07-04T13:30:01.488Z,98033.11
2018-07-04T13:32:47.724Z,98034.89
2018-07-04T13:35:33.934Z,98030.19
2018-07-04T13:38:20.097Z,98024.91
2018-07-04T13:41:06.164Z,98021.28
2018-07-04T13:43:52.369Z,98017.73
2018-07-04T13:46:38.618Z,98011.11
2018-07-04T13:49:25.051Z,98015.60
2018-07-04T13:52:11.227Z,98004.47
2018-07-04T13:54:57.435Z,98005.47
2018-07-04T13:57:43.692Z,98002.39
2018-07-04T14:00:29.779Z,97998.86
2018-07-04T14:03:15.970Z,97998.31
2018-07-04T14:06:02.151Z,97998.00
2018-07-04T14:08:48.445Z,98003.17
2018-07-04T14:11:34.612Z,98003.23
2018-07-04T14:14:20.882Z,98026.63
2018-07-04T14:17:07.074Z,98070.45
2018-07-04T14:19:53.229Z,98143.25
2018-07-04T14:22:39.348Z,98194.86
2018-07-04T14:25:25.487Z,98224.37
2018-07-04T14:28:11.719Z,98184.73
2018-07-04T14:30:58.002Z,98198.98
2018-07-04T14:33:44.395Z,98245.09
2018-07-04T14:36:30.474Z,98263.08
2018-07-04T14:39:17.000Z,98243.98
2018-07-04T14:42:03.258Z,98198.14
2018-07-04T14:44:49.352Z,98216.50
2018-07-04T14:47:35.641Z,98224.91
2018-07-04T14:50:21.944Z,98226.89
2018-07-04T14:53:08.299Z,98236.08
2018-07-04T14:55:54.868Z,98215.45
2018-07-04T14:58:41.077Z,98198.70
2018-07-04T15:01:27.216Z,98172.17
2018-07-04T15:04:07.562Z,98178.47
2018-07-04T15:06:54.156Z,98174.59
2018-07-04T15:09:40.495Z,98172.17
2018-07-04T15:12:26.638Z,98173.00
2018-07-04T15:15:12.838Z,98159.67
2018-07-04T15:17:59.083Z,98153.08
2018-07-04T15:20:45.274Z,98143.52
2018-07-04T15:23:31.488Z,98130.66
2018-07-04T15:26:17.686Z,98109.95
2018-07-04T15:29:03.770Z,98102.98
2018-07-04T15:31:50.122Z,98106.25
2018-07-04T15:34:36.363Z,98107.41
2018-07-04T15:37:16.688Z,98113.01
2018-07-04T15:40:02.803Z,98112.80
2018-07-04T15:42:48.953Z,98118.72
2018-07-04T15:45:35.176Z,98123.86
2018-07-04T15:48:21.367Z,98113.03
2018-07-04T15:51:07.716Z,98109.34
2018-07-04T15:53:48.033Z,98106.75
2018-07-04T15:56:35.346Z,98100.64
2018-07-04T15:59:21.683Z,98102.57
2018-07-04T16:02:07.979Z,98097.02
2018-07-04T16:04:54.209Z,98098.95
2018-07-04T16:07:40.284Z,98098.51
2018-07-04T16:10:26.529Z,98098.09
2018-07-04T16:13:12.857Z,98095.23
2018-07-04T16:15:58.971Z,98084.30
2018-07-04T16:18:46.216Z,98070.19
2018-07-04T16:21:32.369Z,98068.11
2018-07-04T16:24:12.525Z,98067.36
2018-07-04T16:26:58.835Z,98065.86
2018-07-04T16:29:44.990Z,98057.98
2018-07-04T16:32:31.210Z,98050.85
2018-07-04T16:35:17.568Z,98058.93
2018-07-04T16:38:03.824Z,98059.05
2018-07-04T16:40:50.612Z,98051.36
2018-07-04T16:43:36.706Z,98041.83
2018-07-04T16:46:22.975Z,98046.69
2018-07-04T16:49:09.609Z,98043.50
2018-07-04T16:51:55.954Z,98047.21
2018-07-04T16:54:42.160Z,98037.86
2018-07-04T16:57:28.347Z,98018.03
2018-07-04T17:00:14.428Z,98025.19
2018-07-04T17:03:00.464Z,98024.77
2018-07-04T17:05:46.688Z,98029.68
2018-07-04T17:08:33.369Z,98033.73
2018-07-04T17:11:19.623Z,98024.42
2018-07-04T17:14:05.749Z,98011.37
2018-07-04T17:16:51.974Z,98014.97
2018-07-04T17:19:38.160Z,98023.20
2018-07-04T17:22:24.355Z,98037.66
2018-07-04T17:25:10.497Z,98039.84
2018-07-04T17:27:56.883Z,98036.55
2018-07-04T17:30:43.096Z,98030.19
2018-07-04T17:33:29.247Z,98048.22
2018-07-04T17:36:15.470Z,98060.36
2018-07-04T17:39:01.791Z,98051.94
2018-07-04T17:41:48.000Z,98058.23
2018-07-04T17:44:34.346Z,98062.52
2018-07-04T17:47:21.242Z,98069.23
2018-07-04T17:50:07.528Z,98059.92
2018-07-04T17:52:54.022Z,98071.98
2018-07-04T17:55:40.288Z,98063.45
2018-07-04T17:58:26.468Z,98062.17
2018-07-04T18:01:12.685Z,98057.11
2018-07-04T18:03:58.956Z,98059.25
2018-07-04T18:06:45.129Z,98071.25
2018-07-04T18:09:31.254Z,98074.45
2018-07-04T18:12:17.571Z,98071.79
2018-07-04T18:15:03.769Z,98085.66
2018-07-04T18:17:49.930Z,98072.05
2018-07-04T18:20:36.078Z,98070.17
2018-07-04T18:23:22.180Z,98066.43
2018-07-04T18:26:08.498Z,98059.48
2018-07-04T18:28:54.585Z,98064.48
2018-07-04T18:31:42.126Z,98066.63
2018-07-04T18:34:28.417Z,98059.41
2018-07-04T18:37:14.545Z,98059.85
2018-07-04T18:40:00.821Z,98057.72
2018-07-04T18:42:41.181Z,98051.78
2018-07-04T18:45:27.417Z,98050.34
2018-07-04T18:48:14.277Z,98043.13
2018-07-04T18:50:54.495Z,98053.19
2018-07-04T18:53:41.226Z,98051.74
2018-07-04T18:56:27.408Z,98049.03
2018-07-04T18:59:13.672Z,98040.75
2018-07-04T19:02:00.050Z,98038.14
2018-07-04T19:04:46.225Z,98033.44
2018-07-04T19:07:32.385Z,98030.00
2018-07-04T19:10:18.575Z,98029.52
2018-07-04T19:13:05.224Z,98013.57
2018-07-04T19:15:51.545Z,98007.16
2018-07-04T19:18:37.770Z,98001.76
2018-07-04T19:21:23.942Z,97996.78
2018-07-04T19:24:10.701Z,97995.52
2018-07-04T19:26:56.894Z,97993.41
2018-07-04T19:29:42.979Z,97986.69
2018-07-04T19:32:29.161Z,97975.81
2018-07-04T19:35:15.361Z,97977.98
2018-07-04T19:38:01.691Z,97991.84
2018-07-04T19:40:47.979Z,97995.77
2018-07-04T19:43:34.186Z,97994.41
2018-07-04T19:46:20.782Z,98002.16
2018-07-04T19:49:06.985Z,98009.09
2018-07-04T19:51:53.241Z,98023.97
2018-07-04T19:54:39.433Z,98043.17
2018-07-04T19:57:26.591Z,98045.55
2018-07-04T20:00:12.755Z,98038.90
2018-07-04T20:02:58.936Z,98038.33
2018-07-04T20:05:45.072Z,98035.95
2018-07-04T20:08:31.489Z,98044.94
2018-07-04T20:11:17.734Z,98060.31
2018-07-04T20:14:04.151Z,98063.82
2018-07-04T20:16:50.426Z,98066.03
2018-07-04T20:19:36.627Z,98068.30
2018-07-04T20:22:23.017Z,98073.84
2018-07-04T20:25:09.500Z,98062.45
2018-07-04T20:27:55.701Z,98065.11
2018-07-04T20:30:41.878Z,98076.48
2018-07-04T20:33:28.137Z,98086.95
2018-07-04T20:36:14.507Z,98090.63
2018-07-04T20:39:00.828Z,98102.31
2018-07-04T20:41:47.334Z,98106.03
2018-07-04T20:44:33.440Z,98095.86
2018-07-04T20:47:19.717Z,98098.77
2018-07-04T20:50:05.847Z,98101.86
2018-07-04T20:52:52.062Z,98101.81
2018-07-04T20:55:38.390Z,98097.05
2018-07-04T20:58:25.164Z,98095.47
2018-07-04T21:01:11.361Z,98094.20
2018-07-04T21:03:58.128Z,98089.93
2018-07-04T21:06:44.330Z,98087.28
2018-07-04T21:09:30.561Z,98082.26
2018-07-04T21:12:16.652Z,98086.21
2018-07-04T21:15:02.904Z,98084.19
2018-07-04T21:17:49.075Z,98077.09
2018-07-04T21:20:35.246Z,98071.44
2018-07-04T21:23:21.412Z,98076.62
2018-07-04T21:26:07.560Z,98072.13
2018-07-04T21:28:47.906Z,98074.81
2018-07-04T21:31:28.243Z,98073.26
2018-07-04T21:34:14.535Z,98070.92
2018-07-04T21:37:00.715Z,98063.14
2018-07-04T21:39:46.981Z,98068.03
2018-07-04T21:42:33.210Z,98072.84
2018-07-04T21:45:19.403Z,98068.55
2018-07-04T21:48:05.794Z,98069.91
2018-07-04T21:50:51.983Z,98075.76
2018-07-04T21:53:38.357Z,98063.25
2018-07-04T21:56:24.394Z,98062.53
2018-07-04T21:59:10.680Z,98051.34
2018-07-04T22:01:56.817Z,98057.39
2018-07-04T22:04:42.872Z,98052.34
2018-07-04T22:07:29.018Z,98051.61
2018-07-04T22:10:09.333Z,98051.41
2018-07-04T22:12:55.491Z,98052.34
2018-07-04T22:15:41.882Z,98057.94
2018-07-04T22:18:28.071Z,98057.62
2018-07-04T22:21:14.204Z,98056.45
2018-07-04T22:24:00.411Z,98052.85
2018-07-04T22:26:46.624Z,98056.28
2018-07-04T22:29:32.931Z,98040.70
2018-07-04T22:32:19.161Z,98031.60
2018-07-04T22:35:05.432Z,98032.34
2018-07-04T22:37:51.606Z,98030.58
2018-07-04T22:40:37.876Z,98033.27
2018-07-04T22:43:24.047Z,98045.48
2018-07-04T22:46:10.276Z,98039.15
2018-07-04T22:48:56.449Z,98043.23
2018-07-04T22:51:42.629Z,98045.45
2018-07-04T22:54:28.849Z,98039.39
2018-07-04T22:57:14.891Z,98042.96
2018-07-04T22:59:55.157Z,98045.36
2018-07-04T23:02:42.236Z,98043.23
2018-07-04T23:05:28.329Z,98050.52
2018-07-04T23:08:14.488Z,98047.58
2018-07-04T23:11:00.652Z,98045.56
2018-07-04T23:13:41.011Z,98040.20
2018-07-04T23:16:21.260Z,98046.26
2018-07-04T23:19:07.488Z,98043.31
2018-07-04T23:21:53.682Z,98042.89
2018-07-04T23:24:39.775Z,98041.61
2018-07-04T23:27:25.852Z,98037.60
2018-07-04T23:30:12.167Z,98041.45
2018-07-04T23:32:58.455Z,98043.77
2018-07-04T23:35:45.349Z,98052.69
2018-07-04T23:38:32.011Z,98047.01
2018-07-04T23:41:18.150Z,98046.83
2018-07-04T23:44:04.430Z,98041.72
2018-07-04T23:46:50.612Z,98037.58
2018-07-04T23:49:36.771Z,98033.53
2018-07-04T23:52:22.974Z,98037.80
2018-07-04T23:55:09.309Z,98036.14
2018-07-04T23:57:55.546Z,98031.78
